TFV009 GCTS-EBLG
Flight info
| Callsign | TFV009 |
|---|---|
| Flight time | N/A |
| Altitude | 30000 |
| Route | KASAS DCT SAMAR/N0457F340 DCT NEVTU/N0458F360 DCT TIGGI DCT LUVUP DCT PINEK DCT LOTEE DCT AZFIC/N0456F380 UN741 MOKOR UN873 ARDOD DCT GODIX DCT PODEM UN873 BAZOS DCT SOMIL DCT PERON DCT CMB DCT ROBAL UM617 CIV |
| Aircraft | B738/M-SDE2E3FGHIRWXY/LB1 |
Departure
| Time | 2026-04-30 05:44 |
|---|---|
| Airport | Tenerife Sur Airport (GCTS) |
Arrival
| Time | N/A |
|---|---|
| Airport | Liège Airport (EBLG) |
| Time | Latitude | Longitude | Altitude | Speed | Heading |
|---|---|---|---|---|---|
| 2026-04-30 05:43 | 28.07727 | -16.47794 | 3601 ft | 261 kts | 68° |
| 2026-04-30 05:44 | 28.08405 | -16.45862 | 4333 ft | 267 kts | 68° |
| 2026-04-30 05:44 | 28.09077 | -16.43888 | 5101 ft | 271 kts | 69° |
| 2026-04-30 05:44 | 28.09735 | -16.41866 | 5808 ft | 277 kts | 69° |
| 2026-04-30 05:44 | 28.10401 | -16.39796 | 6509 ft | 283 kts | 68° |
| 2026-04-30 05:45 | 28.11079 | -16.37687 | 7192 ft | 287 kts | 68° |
| 2026-04-30 05:45 | 28.11768 | -16.35546 | 7887 ft | 292 kts | 68° |
| 2026-04-30 05:45 | 28.12467 | -16.33377 | 8612 ft | 294 kts | 68° |
| 2026-04-30 05:45 | 28.13165 | -16.31210 | 9297 ft | 299 kts | 68° |
| 2026-04-30 05:46 | 28.13887 | -16.28973 | 9950 ft | 305 kts | 68° |
| 2026-04-30 05:46 | 28.14624 | -16.26686 | 10436 ft | 317 kts | 68° |
| 2026-04-30 05:46 | 28.15410 | -16.24251 | 10589 ft | 340 kts | 69° |
| 2026-04-30 05:46 | 28.16245 | -16.21661 | 10757 ft | 361 kts | 69° |
| 2026-04-30 05:47 | 28.17127 | -16.18919 | 10921 ft | 380 kts | 69° |
| 2026-04-30 05:47 | 28.18047 | -16.16056 | 11289 ft | 391 kts | 69° |
| 2026-04-30 05:47 | 28.18983 | -16.13140 | 11850 ft | 395 kts | 69° |
| 2026-04-30 05:47 | 28.19925 | -16.10205 | 12459 ft | 398 kts | 69° |
| 2026-04-30 05:48 | 28.21038 | -16.07326 | 13006 ft | 401 kts | 55° |
| 2026-04-30 05:48 | 28.22941 | -16.05042 | 13566 ft | 399 kts | 33° |
| 2026-04-30 05:48 | 28.25399 | -16.03636 | 14135 ft | 396 kts | 14° |
| 2026-04-30 05:48 | 28.28085 | -16.03098 | 14684 ft | 391 kts | 356° |
| 2026-04-30 05:49 | 28.30781 | -16.03353 | 15292 ft | 389 kts | 349° |
| 2026-04-30 05:49 | 28.33469 | -16.03749 | 15876 ft | 390 kts | 349° |
| 2026-04-30 05:49 | 28.36161 | -16.04167 | 16432 ft | 392 kts | 348° |
| 2026-04-30 05:49 | 28.38866 | -16.04586 | 16997 ft | 393 kts | 348° |
| 2026-04-30 05:50 | 28.41586 | -16.04997 | 17552 ft | 395 kts | 349° |
| 2026-04-30 05:50 | 28.44314 | -16.05399 | 18102 ft | 396 kts | 349° |
| 2026-04-30 05:50 | 28.47053 | -16.05796 | 18598 ft | 398 kts | 349° |
| 2026-04-30 05:50 | 28.49809 | -16.06191 | 19056 ft | 400 kts | 349° |
| 2026-04-30 05:51 | 28.52572 | -16.06584 | 19516 ft | 401 kts | 349° |
| 2026-04-30 05:51 | 28.55343 | -16.06977 | 19989 ft | 402 kts | 349° |
| 2026-04-30 05:51 | 28.58091 | -16.07368 | 20424 ft | 405 kts | 349° |
| 2026-04-30 05:51 | 28.60899 | -16.07767 | 20792 ft | 409 kts | 349° |
| 2026-04-30 05:52 | 28.63725 | -16.08169 | 21235 ft | 410 kts | 349° |
| 2026-04-30 05:52 | 28.66556 | -16.08572 | 21700 ft | 411 kts | 349° |
| 2026-04-30 05:52 | 28.69400 | -16.08976 | 22130 ft | 412 kts | 349° |
| 2026-04-30 05:52 | 28.72250 | -16.09383 | 22529 ft | 414 kts | 349° |
| 2026-04-30 05:53 | 28.75115 | -16.09791 | 22917 ft | 416 kts | 349° |
| 2026-04-30 05:53 | 28.77997 | -16.10202 | 23313 ft | 418 kts | 349° |
| 2026-04-30 05:53 | 28.80885 | -16.10615 | 23688 ft | 419 kts | 349° |
| 2026-04-30 05:53 | 28.83783 | -16.11028 | 24025 ft | 420 kts | 349° |
| 2026-04-30 05:54 | 28.86687 | -16.11443 | 24406 ft | 420 kts | 349° |
| 2026-04-30 05:54 | 28.89586 | -16.11857 | 24787 ft | 420 kts | 349° |
| 2026-04-30 05:54 | 28.92482 | -16.12271 | 25146 ft | 420 kts | 349° |
| 2026-04-30 05:54 | 28.95413 | -16.12468 | 25454 ft | 427 kts | 0° |
| 2026-04-30 05:55 | 28.98352 | -16.11786 | 25762 ft | 436 kts | 11° |
| 2026-04-30 05:55 | 29.01253 | -16.10778 | 26112 ft | 436 kts | 11° |
| 2026-04-30 05:55 | 29.04151 | -16.09743 | 26418 ft | 437 kts | 12° |
| 2026-04-30 05:55 | 29.07061 | -16.08703 | 26705 ft | 438 kts | 11° |
| 2026-04-30 05:56 | 29.09975 | -16.07672 | 26993 ft | 439 kts | 11° |
| 2026-04-30 05:56 | 29.12894 | -16.06649 | 27285 ft | 439 kts | 11° |
| 2026-04-30 05:56 | 29.15784 | -16.05646 | 27577 ft | 440 kts | 11° |
| 2026-04-30 05:56 | 29.18755 | -16.04620 | 27868 ft | 440 kts | 11° |
| 2026-04-30 05:57 | 29.21644 | -16.03623 | 28262 ft | 438 kts | 10° |
| 2026-04-30 05:57 | 29.24585 | -16.02608 | 28768 ft | 434 kts | 10° |
| 2026-04-30 05:57 | 29.27457 | -16.01616 | 29267 ft | 429 kts | 10° |
| 2026-04-30 05:57 | 29.30305 | -16.00632 | 29734 ft | 426 kts | 10° |
| 2026-04-30 05:58 | 29.33139 | -15.99654 | 30139 ft | 424 kts | 10° |
| 2026-04-30 05:58 | 29.35915 | -15.98696 | 30521 ft | 421 kts | 10° |
| 2026-04-30 05:58 | 29.38749 | -15.97717 | 30901 ft | 418 kts | 10° |
| 2026-04-30 05:58 | 29.41527 | -15.96757 | 31216 ft | 417 kts | 9° |
| 2026-04-30 05:59 | 29.44262 | -15.95812 | 31526 ft | 415 kts | 9° |
| 2026-04-30 05:59 | 29.47022 | -15.94857 | 31858 ft | 413 kts | 9° |
| 2026-04-30 05:59 | 29.49767 | -15.93906 | 32191 ft | 411 kts | 9° |
| 2026-04-30 05:59 | 29.52499 | -15.92959 | 32491 ft | 410 kts | 9° |
| 2026-04-30 06:00 | 29.55223 | -15.92015 | 32769 ft | 408 kts | 8° |
| 2026-04-30 06:00 | 29.57940 | -15.91077 | 33063 ft | 407 kts | 9° |
| 2026-04-30 06:00 | 29.60643 | -15.90138 | 33379 ft | 405 kts | 8° |
| 2026-04-30 06:00 | 29.63332 | -15.89202 | 33669 ft | 403 kts | 8° |
| 2026-04-30 06:01 | 29.66013 | -15.88269 | 33923 ft | 402 kts | 8° |
| 2026-04-30 06:01 | 29.68693 | -15.87337 | 34146 ft | 402 kts | 8° |
| 2026-04-30 06:01 | 29.71369 | -15.86406 | 34321 ft | 402 kts | 8° |
| 2026-04-30 06:01 | 29.74052 | -15.85473 | 34448 ft | 404 kts | 8° |
| 2026-04-30 06:02 | 29.76741 | -15.84537 | 34598 ft | 404 kts | 8° |
| 2026-04-30 06:02 | 29.79433 | -15.83599 | 34766 ft | 404 kts | 8° |
| 2026-04-30 06:02 | 29.82124 | -15.82660 | 34935 ft | 405 kts | 8° |
| 2026-04-30 06:02 | 29.84821 | -15.81719 | 35044 ft | 406 kts | 8° |
| 2026-04-30 06:03 | 29.90261 | -15.79819 | 35064 ft | 409 kts | 8° |
| 2026-04-30 06:03 | 29.95674 | -15.77916 | 35063 ft | 406 kts | 11° |
| 2026-04-30 06:04 | 29.98255 | -15.76476 | 35065 ft | 420 kts | 24° |
| 2026-04-30 06:04 | 30.00528 | -15.74266 | 35076 ft | 438 kts | 38° |
| 2026-04-30 06:05 | 30.06237 | -15.65964 | 35072 ft | 443 kts | 42° |
| 2026-04-30 06:05 | 30.10007 | -15.60323 | 35074 ft | 444 kts | 42° |
| 2026-04-30 06:06 | 30.13821 | -15.54693 | 35077 ft | 446 kts | 42° |
| 2026-04-30 06:06 | 30.17665 | -15.49057 | 35073 ft | 447 kts | 42° |
| 2026-04-30 06:07 | 30.21526 | -15.43400 | 35069 ft | 449 kts | 42° |
| 2026-04-30 06:07 | 30.25397 | -15.37716 | 35070 ft | 451 kts | 42° |
| 2026-04-30 06:08 | 30.29279 | -15.32007 | 35072 ft | 452 kts | 42° |
| 2026-04-30 06:08 | 30.33165 | -15.26281 | 35072 ft | 453 kts | 42° |
| 2026-04-30 06:09 | 30.37056 | -15.20546 | 35074 ft | 453 kts | 42° |
| 2026-04-30 06:09 | 30.40949 | -15.14808 | 35068 ft | 453 kts | 42° |
| 2026-04-30 06:10 | 30.44828 | -15.09058 | 35069 ft | 452 kts | 42° |
| 2026-04-30 06:10 | 30.48705 | -15.03322 | 35075 ft | 451 kts | 42° |
| 2026-04-30 06:11 | 30.52570 | -14.97591 | 35066 ft | 450 kts | 42° |
| 2026-04-30 06:11 | 30.56425 | -14.91870 | 35081 ft | 450 kts | 44° |
| 2026-04-30 06:12 | 30.60283 | -14.86130 | 35085 ft | 451 kts | 44° |
| 2026-04-30 06:12 | 30.64123 | -14.80405 | 35083 ft | 453 kts | 44° |
| 2026-04-30 06:13 | 30.67999 | -14.74604 | 35093 ft | 456 kts | 44° |
| 2026-04-30 06:13 | 30.71899 | -14.68777 | 35081 ft | 458 kts | 44° |
| 2026-04-30 06:14 | 30.75816 | -14.62919 | 35080 ft | 460 kts | 44° |
| 2026-04-30 06:14 | 30.79739 | -14.57036 | 35094 ft | 461 kts | 45° |
| 2026-04-30 06:15 | 30.83685 | -14.51119 | 35085 ft | 464 kts | 46° |
| 2026-04-30 06:15 | 30.87658 | -14.45165 | 35085 ft | 466 kts | 44° |
| 2026-04-30 06:16 | 30.92451 | -14.40279 | 35082 ft | 454 kts | 26° |
| 2026-04-30 06:16 | 30.98055 | -14.37031 | 35076 ft | 450 kts | 19° |
| 2026-04-30 06:17 | 31.03763 | -14.33969 | 35086 ft | 453 kts | 19° |
| 2026-04-30 06:17 | 31.09491 | -14.30861 | 35086 ft | 455 kts | 19° |
| 2026-04-30 06:18 | 31.15220 | -14.27710 | 35082 ft | 455 kts | 20° |
| 2026-04-30 06:18 | 31.20943 | -14.24544 | 35077 ft | 454 kts | 20° |
| 2026-04-30 06:19 | 31.26647 | -14.21382 | 35088 ft | 453 kts | 20° |
| 2026-04-30 06:19 | 31.32386 | -14.18202 | 35094 ft | 461 kts | 21° |
| 2026-04-30 06:20 | 31.38233 | -14.14959 | 35091 ft | 469 kts | 21° |
| 2026-04-30 06:20 | 31.44154 | -14.11667 | 35103 ft | 473 kts | 21° |
| 2026-04-30 06:20 | 31.47119 | -14.10015 | 35309 ft | 471 kts | 21° |
| 2026-04-30 06:21 | 31.50071 | -14.08368 | 35619 ft | 467 kts | 21° |
| 2026-04-30 06:21 | 31.52955 | -14.06758 | 35918 ft | 464 kts | 21° |
| 2026-04-30 06:21 | 31.55864 | -14.05134 | 36095 ft | 463 kts | 21° |
| 2026-04-30 06:22 | 31.61717 | -14.01869 | 36086 ft | 467 kts | 21° |
| 2026-04-30 06:22 | 31.67561 | -13.98602 | 36072 ft | 463 kts | 21° |
| 2026-04-30 06:23 | 31.73359 | -13.95354 | 36076 ft | 460 kts | 21° |
| 2026-04-30 06:23 | 31.79121 | -13.92124 | 36082 ft | 458 kts | 21° |
| 2026-04-30 06:24 | 31.84870 | -13.88897 | 36087 ft | 457 kts | 21° |
| 2026-04-30 06:24 | 31.90645 | -13.85652 | 36098 ft | 463 kts | 21° |
| 2026-04-30 06:25 | 31.96495 | -13.82358 | 36091 ft | 469 kts | 22° |
| 2026-04-30 06:25 | 32.02414 | -13.79022 | 36091 ft | 474 kts | 22° |
| 2026-04-30 06:26 | 32.08393 | -13.75646 | 36088 ft | 478 kts | 22° |
| 2026-04-30 06:26 | 32.14409 | -13.72244 | 36094 ft | 480 kts | 23° |
| 2026-04-30 06:27 | 32.20445 | -13.68825 | 36080 ft | 481 kts | 23° |
| 2026-04-30 06:27 | 32.26440 | -13.65424 | 36075 ft | 481 kts | 23° |
| 2026-04-30 06:28 | 32.32462 | -13.62003 | 36079 ft | 479 kts | 23° |
| 2026-04-30 06:28 | 32.38459 | -13.58592 | 36078 ft | 477 kts | 23° |
| 2026-04-30 06:29 | 32.44433 | -13.55188 | 36085 ft | 476 kts | 23° |
| 2026-04-30 06:29 | 32.50386 | -13.51792 | 36079 ft | 474 kts | 23° |
| 2026-04-30 06:30 | 32.56319 | -13.48402 | 36073 ft | 473 kts | 24° |
| 2026-04-30 06:30 | 32.62240 | -13.45014 | 36087 ft | 472 kts | 24° |
| 2026-04-30 06:31 | 32.67162 | -13.42194 | 36088 ft | 473 kts | 24° |
| 2026-04-30 06:31 | 32.73092 | -13.38793 | 36088 ft | 474 kts | 24° |
| 2026-04-30 06:32 | 32.79045 | -13.35372 | 36084 ft | 476 kts | 24° |
| 2026-04-30 06:32 | 32.85016 | -13.31936 | 36082 ft | 478 kts | 24° |
| 2026-04-30 06:33 | 32.91010 | -13.28480 | 36080 ft | 479 kts | 24° |
| 2026-04-30 06:33 | 32.97020 | -13.25010 | 36084 ft | 481 kts | 24° |
| 2026-04-30 06:34 | 33.02855 | -13.21075 | 36090 ft | 483 kts | 30° |
| 2026-04-30 06:34 | 33.08525 | -13.16768 | 36083 ft | 484 kts | 31° |
| 2026-04-30 06:35 | 33.14197 | -13.12443 | 36078 ft | 484 kts | 31° |
| 2026-04-30 06:35 | 33.19886 | -13.08168 | 36081 ft | 483 kts | 31° |
| 2026-04-30 06:36 | 33.25585 | -13.03917 | 36080 ft | 482 kts | 30° |
| 2026-04-30 06:36 | 33.31274 | -12.99673 | 36083 ft | 482 kts | 31° |
| 2026-04-30 06:37 | 33.36961 | -12.95422 | 36077 ft | 481 kts | 31° |
| 2026-04-30 06:37 | 33.42596 | -12.91202 | 36078 ft | 481 kts | 31° |
| 2026-04-30 06:38 | 33.48268 | -12.86946 | 36076 ft | 480 kts | 31° |
| 2026-04-30 06:38 | 33.53931 | -12.82690 | 36076 ft | 480 kts | 31° |
| 2026-04-30 06:39 | 33.59588 | -12.78433 | 36081 ft | 480 kts | 31° |
| 2026-04-30 06:39 | 33.65242 | -12.74171 | 36075 ft | 480 kts | 31° |
| 2026-04-30 06:40 | 33.70900 | -12.69898 | 36081 ft | 480 kts | 31° |
| 2026-04-30 06:40 | 33.76561 | -12.65618 | 36079 ft | 481 kts | 31° |
| 2026-04-30 06:41 | 33.82220 | -12.61331 | 36083 ft | 481 kts | 31° |
| 2026-04-30 06:41 | 33.87890 | -12.57030 | 36082 ft | 482 kts | 31° |
| 2026-04-30 06:42 | 33.93566 | -12.52718 | 36080 ft | 483 kts | 31° |
| 2026-04-30 06:42 | 33.99242 | -12.48398 | 36079 ft | 483 kts | 31° |
| 2026-04-30 06:43 | 34.04926 | -12.44065 | 36079 ft | 484 kts | 31° |
| 2026-04-30 06:43 | 34.10616 | -12.39721 | 36081 ft | 484 kts | 32° |
| 2026-04-30 06:44 | 34.16300 | -12.35374 | 36077 ft | 484 kts | 32° |
| 2026-04-30 06:44 | 34.21984 | -12.31020 | 36073 ft | 483 kts | 32° |
| 2026-04-30 06:45 | 34.27660 | -12.26665 | 36073 ft | 483 kts | 32° |
| 2026-04-30 06:45 | 34.33327 | -12.22311 | 36076 ft | 482 kts | 32° |
| 2026-04-30 06:46 | 34.38989 | -12.17953 | 36090 ft | 482 kts | 32° |
| 2026-04-30 06:46 | 34.44606 | -12.13622 | 36076 ft | 482 kts | 32° |
| 2026-04-30 06:47 | 34.50254 | -12.09261 | 36079 ft | 481 kts | 32° |
| 2026-04-30 06:47 | 34.55894 | -12.04899 | 36074 ft | 481 kts | 32° |
| 2026-04-30 06:48 | 34.61531 | -12.00532 | 36069 ft | 480 kts | 32° |
| 2026-04-30 06:48 | 34.67158 | -11.96166 | 36081 ft | 480 kts | 32° |
| 2026-04-30 06:49 | 34.72791 | -11.91787 | 36072 ft | 480 kts | 32° |
| 2026-04-30 06:49 | 34.78416 | -11.87408 | 36075 ft | 480 kts | 32° |
| 2026-04-30 06:50 | 34.84039 | -11.83023 | 36074 ft | 480 kts | 32° |
| 2026-04-30 06:50 | 34.89662 | -11.78631 | 36074 ft | 480 kts | 32° |
| 2026-04-30 06:51 | 34.95283 | -11.74233 | 36082 ft | 480 kts | 32° |
| 2026-04-30 06:51 | 35.00909 | -11.69825 | 36073 ft | 481 kts | 32° |
| 2026-04-30 06:52 | 35.06532 | -11.65410 | 36071 ft | 481 kts | 32° |
| 2026-04-30 06:52 | 35.12115 | -11.61020 | 36071 ft | 481 kts | 32° |
| 2026-04-30 06:53 | 35.17735 | -11.56594 | 36071 ft | 481 kts | 32° |
| 2026-04-30 06:53 | 35.23353 | -11.52162 | 36074 ft | 481 kts | 33° |
| 2026-04-30 06:54 | 35.28968 | -11.47725 | 36070 ft | 481 kts | 33° |
| 2026-04-30 06:54 | 35.34588 | -11.43276 | 36071 ft | 481 kts | 33° |
| 2026-04-30 06:55 | 35.40202 | -11.38825 | 36071 ft | 481 kts | 33° |
| 2026-04-30 06:55 | 35.45817 | -11.34365 | 36071 ft | 481 kts | 33° |
| 2026-04-30 06:56 | 35.51427 | -11.29902 | 36050 ft | 480 kts | 33° |
| 2026-04-30 06:56 | 35.57030 | -11.25438 | 36067 ft | 480 kts | 33° |
| 2026-04-30 06:57 | 35.62633 | -11.20964 | 36072 ft | 480 kts | 33° |
| 2026-04-30 06:57 | 35.68231 | -11.16487 | 36071 ft | 480 kts | 33° |
| 2026-04-30 06:58 | 35.73834 | -11.12000 | 36081 ft | 480 kts | 33° |
| 2026-04-30 06:58 | 35.79436 | -11.07504 | 36070 ft | 481 kts | 33° |
| 2026-04-30 06:59 | 35.85035 | -11.03004 | 36071 ft | 481 kts | 33° |
| 2026-04-30 06:59 | 35.90633 | -10.98496 | 36071 ft | 480 kts | 33° |
| 2026-04-30 07:00 | 35.96257 | -10.94038 | 36050 ft | 480 kts | 30° |
| 2026-04-30 07:00 | 36.02415 | -10.90922 | 36084 ft | 479 kts | 19° |
| 2026-04-30 07:01 | 36.08740 | -10.88320 | 36074 ft | 479 kts | 18° |
| 2026-04-30 07:01 | 36.15057 | -10.85703 | 36069 ft | 479 kts | 19° |
| 2026-04-30 07:02 | 36.21365 | -10.83035 | 36069 ft | 479 kts | 19° |
| 2026-04-30 07:02 | 36.27665 | -10.80332 | 36072 ft | 479 kts | 19° |
| 2026-04-30 07:03 | 36.33965 | -10.77612 | 36070 ft | 479 kts | 19° |
| 2026-04-30 07:03 | 36.40262 | -10.74889 | 36072 ft | 480 kts | 19° |
| 2026-04-30 07:04 | 36.46566 | -10.72162 | 36068 ft | 480 kts | 19° |
| 2026-04-30 07:04 | 36.52871 | -10.69430 | 36073 ft | 480 kts | 19° |
| 2026-04-30 07:05 | 36.62292 | -10.65339 | 36069 ft | 480 kts | 19° |
| 2026-04-30 07:05 | 36.68605 | -10.62592 | 36065 ft | 481 kts | 19° |
| 2026-04-30 07:06 | 36.74918 | -10.59841 | 36068 ft | 481 kts | 19° |
| 2026-04-30 07:06 | 36.81235 | -10.57082 | 36051 ft | 481 kts | 19° |
| 2026-04-30 07:07 | 36.87553 | -10.54318 | 36065 ft | 481 kts | 19° |
| 2026-04-30 07:07 | 36.93866 | -10.51552 | 36069 ft | 481 kts | 19° |
| 2026-04-30 07:08 | 37.00178 | -10.48781 | 36065 ft | 481 kts | 19° |
| 2026-04-30 07:08 | 37.06498 | -10.46002 | 36061 ft | 481 kts | 19° |
| 2026-04-30 07:09 | 37.12818 | -10.43218 | 36067 ft | 482 kts | 19° |
| 2026-04-30 07:09 | 37.19142 | -10.40427 | 36065 ft | 482 kts | 19° |
| 2026-04-30 07:10 | 37.25468 | -10.37630 | 36066 ft | 482 kts | 19° |
| 2026-04-30 07:10 | 37.31799 | -10.34826 | 36065 ft | 483 kts | 19° |
| 2026-04-30 07:11 | 37.38133 | -10.32015 | 36067 ft | 483 kts | 19° |
| 2026-04-30 07:11 | 37.44473 | -10.29197 | 36066 ft | 483 kts | 19° |
| 2026-04-30 07:12 | 37.50811 | -10.26375 | 36070 ft | 484 kts | 19° |
| 2026-04-30 07:12 | 37.57159 | -10.23543 | 36062 ft | 484 kts | 19° |
| 2026-04-30 07:13 | 37.63469 | -10.20723 | 36064 ft | 484 kts | 19° |
| 2026-04-30 07:13 | 37.69818 | -10.17880 | 36060 ft | 484 kts | 19° |
| 2026-04-30 07:14 | 37.76223 | -10.15235 | 36077 ft | 484 kts | 15° |
| 2026-04-30 07:14 | 37.82714 | -10.12950 | 36063 ft | 484 kts | 14° |
| 2026-04-30 07:15 | 37.89218 | -10.10698 | 36066 ft | 485 kts | 15° |
| 2026-04-30 07:15 | 37.95710 | -10.08400 | 36065 ft | 485 kts | 15° |
| 2026-04-30 07:16 | 38.02204 | -10.06065 | 36066 ft | 485 kts | 15° |
| 2026-04-30 07:16 | 38.08692 | -10.03720 | 36062 ft | 485 kts | 15° |
| 2026-04-30 07:17 | 38.15184 | -10.01370 | 36063 ft | 485 kts | 15° |
| 2026-04-30 07:18 | 38.24872 | -9.97858 | 36067 ft | 485 kts | 15° |
| 2026-04-30 07:18 | 38.31356 | -9.95503 | 36066 ft | 485 kts | 15° |
| 2026-04-30 07:19 | 38.37841 | -9.93143 | 36063 ft | 485 kts | 15° |
| 2026-04-30 07:19 | 38.44325 | -9.90779 | 36063 ft | 485 kts | 15° |
| 2026-04-30 07:20 | 38.50805 | -9.88411 | 36067 ft | 485 kts | 15° |
| 2026-04-30 07:20 | 38.57288 | -9.86038 | 36060 ft | 485 kts | 15° |
| 2026-04-30 07:21 | 38.62717 | -9.84034 | 36061 ft | 485 kts | 15° |
| 2026-04-30 07:21 | 38.69198 | -9.81634 | 36053 ft | 484 kts | 15° |
| 2026-04-30 07:22 | 38.78922 | -9.78079 | 36059 ft | 485 kts | 14° |
| 2026-04-30 07:22 | 38.85369 | -9.75716 | 36061 ft | 485 kts | 14° |
| 2026-04-30 07:23 | 38.91850 | -9.73319 | 36057 ft | 485 kts | 15° |
| 2026-04-30 07:23 | 38.98335 | -9.70913 | 36064 ft | 485 kts | 14° |
| 2026-04-30 07:24 | 39.04823 | -9.68503 | 36060 ft | 485 kts | 14° |
| 2026-04-30 07:24 | 39.11311 | -9.66091 | 36061 ft | 485 kts | 14° |
| 2026-04-30 07:25 | 39.17801 | -9.63673 | 36062 ft | 486 kts | 14° |
| 2026-04-30 07:25 | 39.24292 | -9.61250 | 36057 ft | 486 kts | 14° |
| 2026-04-30 07:26 | 39.30783 | -9.58823 | 36057 ft | 486 kts | 14° |
| 2026-04-30 07:26 | 39.37268 | -9.56393 | 36053 ft | 485 kts | 14° |
| 2026-04-30 07:27 | 39.43751 | -9.53959 | 36060 ft | 485 kts | 14° |
| 2026-04-30 07:27 | 39.50242 | -9.51517 | 36058 ft | 485 kts | 14° |
| 2026-04-30 07:28 | 39.56723 | -9.49075 | 36047 ft | 485 kts | 14° |
| 2026-04-30 07:28 | 39.63201 | -9.46629 | 36061 ft | 485 kts | 14° |
| 2026-04-30 07:29 | 39.69678 | -9.44178 | 36058 ft | 485 kts | 14° |
| 2026-04-30 07:29 | 39.76148 | -9.41725 | 36042 ft | 484 kts | 14° |
| 2026-04-30 07:30 | 39.85844 | -9.38040 | 36058 ft | 484 kts | 14° |
| 2026-04-30 07:31 | 39.92303 | -9.35580 | 36051 ft | 484 kts | 14° |
| 2026-04-30 07:31 | 39.98757 | -9.33116 | 36066 ft | 483 kts | 14° |
| 2026-04-30 07:32 | 40.05215 | -9.30646 | 36049 ft | 483 kts | 14° |
| 2026-04-30 07:32 | 40.11625 | -9.28190 | 36074 ft | 483 kts | 13° |
| 2026-04-30 07:33 | 40.18075 | -9.25713 | 36050 ft | 483 kts | 13° |
| 2026-04-30 07:33 | 40.24523 | -9.23232 | 36056 ft | 483 kts | 13° |
| 2026-04-30 07:34 | 40.30964 | -9.20749 | 36054 ft | 482 kts | 13° |
| 2026-04-30 07:34 | 40.37405 | -9.18262 | 36048 ft | 482 kts | 13° |
| 2026-04-30 07:35 | 40.43841 | -9.15771 | 36050 ft | 482 kts | 14° |
| 2026-04-30 07:35 | 40.50274 | -9.13276 | 36052 ft | 482 kts | 14° |
| 2026-04-30 07:36 | 40.56705 | -9.10777 | 36056 ft | 482 kts | 13° |
| 2026-04-30 07:36 | 40.63134 | -9.08273 | 36048 ft | 482 kts | 13° |
| 2026-04-30 07:37 | 40.69559 | -9.05767 | 36059 ft | 481 kts | 13° |
| 2026-04-30 07:37 | 40.75976 | -9.03258 | 36050 ft | 481 kts | 13° |
| 2026-04-30 07:38 | 40.82394 | -9.00744 | 36056 ft | 481 kts | 13° |
| 2026-04-30 07:38 | 40.88808 | -8.98226 | 36049 ft | 481 kts | 13° |
| 2026-04-30 07:39 | 40.95222 | -8.95703 | 36051 ft | 481 kts | 13° |
| 2026-04-30 07:39 | 41.01635 | -8.93176 | 36060 ft | 480 kts | 13° |
| 2026-04-30 07:40 | 41.08038 | -8.90647 | 36052 ft | 480 kts | 13° |
| 2026-04-30 07:40 | 41.14440 | -8.88114 | 36048 ft | 480 kts | 13° |
| 2026-04-30 07:41 | 41.20831 | -8.85580 | 36047 ft | 479 kts | 13° |
| 2026-04-30 07:41 | 41.27222 | -8.83040 | 36065 ft | 479 kts | 13° |
| 2026-04-30 07:42 | 41.33622 | -8.80492 | 36039 ft | 480 kts | 13° |
| 2026-04-30 07:42 | 41.40015 | -8.77941 | 36050 ft | 479 kts | 13° |
| 2026-04-30 07:43 | 41.46402 | -8.75387 | 36061 ft | 479 kts | 13° |
| 2026-04-30 07:43 | 41.52790 | -8.72828 | 36050 ft | 479 kts | 13° |
| 2026-04-30 07:44 | 41.59175 | -8.70265 | 36044 ft | 479 kts | 13° |
| 2026-04-30 07:44 | 41.65554 | -8.67698 | 36045 ft | 478 kts | 13° |
| 2026-04-30 07:45 | 41.71924 | -8.65130 | 36050 ft | 478 kts | 13° |
| 2026-04-30 07:45 | 41.78290 | -8.62558 | 36040 ft | 477 kts | 13° |
| 2026-04-30 07:46 | 41.84600 | -8.59808 | 36025 ft | 479 kts | 20° |
| 2026-04-30 07:46 | 41.90346 | -8.55183 | 36057 ft | 484 kts | 32° |
| 2026-04-30 07:47 | 41.95832 | -8.49951 | 36049 ft | 484 kts | 32° |
| 2026-04-30 07:47 | 42.01275 | -8.44766 | 36050 ft | 482 kts | 32° |
| 2026-04-30 07:48 | 42.06776 | -8.39586 | 36021 ft | 482 kts | 32° |
| 2026-04-30 07:48 | 42.12281 | -8.34425 | 36047 ft | 482 kts | 32° |
| 2026-04-30 07:49 | 42.17788 | -8.29260 | 36036 ft | 482 kts | 31° |
| 2026-04-30 07:49 | 42.23293 | -8.24079 | 36031 ft | 483 kts | 31° |
| 2026-04-30 07:50 | 42.28798 | -8.18886 | 36034 ft | 482 kts | 31° |
| 2026-04-30 07:50 | 42.34295 | -8.13687 | 36051 ft | 483 kts | 32° |
| 2026-04-30 07:51 | 42.39797 | -8.08474 | 36042 ft | 483 kts | 32° |
| 2026-04-30 07:51 | 42.45299 | -8.03249 | 36035 ft | 484 kts | 32° |
| 2026-04-30 07:52 | 42.50805 | -7.98008 | 36038 ft | 484 kts | 32° |
| 2026-04-30 07:52 | 42.56313 | -7.92755 | 36032 ft | 484 kts | 32° |
| 2026-04-30 07:53 | 42.61818 | -7.87492 | 36030 ft | 484 kts | 32° |
| 2026-04-30 07:53 | 42.67311 | -7.82228 | 36035 ft | 483 kts | 32° |
| 2026-04-30 07:54 | 42.72794 | -7.76964 | 36032 ft | 482 kts | 32° |
| 2026-04-30 07:54 | 42.78272 | -7.71693 | 36048 ft | 482 kts | 32° |
| 2026-04-30 07:55 | 42.83747 | -7.66413 | 36036 ft | 482 kts | 32° |
| 2026-04-30 07:55 | 42.89226 | -7.61117 | 36034 ft | 482 kts | 32° |
| 2026-04-30 07:56 | 42.94689 | -7.55824 | 36030 ft | 481 kts | 32° |
| 2026-04-30 07:56 | 43.00145 | -7.50528 | 36044 ft | 481 kts | 33° |
| 2026-04-30 07:57 | 43.05589 | -7.45230 | 36034 ft | 480 kts | 33° |
| 2026-04-30 07:57 | 43.11026 | -7.39929 | 36029 ft | 479 kts | 33° |
| 2026-04-30 07:58 | 43.16447 | -7.34629 | 36036 ft | 478 kts | 33° |
| 2026-04-30 07:58 | 43.21862 | -7.29326 | 36043 ft | 478 kts | 33° |
| 2026-04-30 07:59 | 43.27269 | -7.24018 | 36033 ft | 478 kts | 33° |
| 2026-04-30 07:59 | 43.32633 | -7.18740 | 36023 ft | 478 kts | 33° |
| 2026-04-30 08:00 | 43.40723 | -7.10758 | 36035 ft | 477 kts | 33° |
| 2026-04-30 08:00 | 43.46110 | -7.05428 | 36035 ft | 477 kts | 33° |
| 2026-04-30 08:01 | 43.51492 | -7.00091 | 36031 ft | 476 kts | 33° |
| 2026-04-30 08:01 | 43.56868 | -6.94748 | 36025 ft | 476 kts | 33° |
| 2026-04-30 08:02 | 43.64912 | -6.86730 | 36040 ft | 475 kts | 34° |
| 2026-04-30 08:03 | 43.75591 | -6.76045 | 36027 ft | 472 kts | 34° |
| 2026-04-30 08:04 | 43.80906 | -6.70708 | 36029 ft | 471 kts | 34° |
| 2026-04-30 08:04 | 43.86201 | -6.65381 | 36039 ft | 470 kts | 34° |
| 2026-04-30 08:05 | 43.91489 | -6.60048 | 36033 ft | 470 kts | 34° |
| 2026-04-30 08:05 | 43.96766 | -6.54714 | 36036 ft | 469 kts | 34° |
| 2026-04-30 08:06 | 44.02036 | -6.49375 | 36033 ft | 469 kts | 34° |
| 2026-04-30 08:06 | 44.06449 | -6.44896 | 36052 ft | 468 kts | 34° |
| 2026-04-30 08:07 | 44.11709 | -6.39544 | 36036 ft | 469 kts | 34° |
| 2026-04-30 08:07 | 44.16968 | -6.34184 | 36038 ft | 468 kts | 34° |
| 2026-04-30 08:08 | 44.22214 | -6.28822 | 36036 ft | 468 kts | 34° |
| 2026-04-30 08:08 | 44.27462 | -6.23448 | 36042 ft | 468 kts | 34° |
| 2026-04-30 08:09 | 44.32703 | -6.18068 | 36037 ft | 468 kts | 35° |
| 2026-04-30 08:09 | 44.37943 | -6.12676 | 36038 ft | 467 kts | 35° |
| 2026-04-30 08:10 | 44.43143 | -6.07314 | 36045 ft | 467 kts | 35° |
| 2026-04-30 08:10 | 44.48369 | -6.01914 | 36040 ft | 467 kts | 35° |
| 2026-04-30 08:11 | 44.53583 | -5.96511 | 36037 ft | 466 kts | 35° |
| 2026-04-30 08:11 | 44.58788 | -5.91107 | 36037 ft | 465 kts | 35° |
| 2026-04-30 08:12 | 44.63989 | -5.85695 | 36035 ft | 465 kts | 35° |
| 2026-04-30 08:12 | 44.68950 | -5.79878 | 36043 ft | 465 kts | 42° |
| 2026-04-30 08:13 | 44.73556 | -5.73482 | 36035 ft | 465 kts | 44° |
| 2026-04-30 08:13 | 44.78130 | -5.67040 | 36041 ft | 465 kts | 43° |
| 2026-04-30 08:14 | 44.82730 | -5.60643 | 36033 ft | 465 kts | 43° |
| 2026-04-30 08:14 | 44.87345 | -5.54273 | 36041 ft | 464 kts | 43° |
| 2026-04-30 08:15 | 44.91962 | -5.47901 | 36034 ft | 464 kts | 43° |
| 2026-04-30 08:15 | 44.96572 | -5.41522 | 36034 ft | 464 kts | 43° |
| 2026-04-30 08:16 | 45.01175 | -5.35136 | 36038 ft | 464 kts | 43° |
| 2026-04-30 08:16 | 45.05773 | -5.28738 | 36030 ft | 464 kts | 43° |
| 2026-04-30 08:17 | 45.10362 | -5.22339 | 36028 ft | 463 kts | 43° |
| 2026-04-30 08:17 | 45.14946 | -5.15932 | 36028 ft | 463 kts | 43° |
| 2026-04-30 08:18 | 45.19490 | -5.09565 | 36025 ft | 462 kts | 44° |
| 2026-04-30 08:18 | 45.24059 | -5.03148 | 36027 ft | 462 kts | 44° |
| 2026-04-30 08:19 | 45.28619 | -4.96729 | 36025 ft | 462 kts | 44° |
| 2026-04-30 08:19 | 45.33173 | -4.90302 | 36026 ft | 461 kts | 44° |
| 2026-04-30 08:20 | 45.37724 | -4.83863 | 36023 ft | 462 kts | 44° |
| 2026-04-30 08:20 | 45.42273 | -4.77413 | 36024 ft | 462 kts | 45° |
| 2026-04-30 08:21 | 45.46823 | -4.70945 | 36024 ft | 462 kts | 44° |
| 2026-04-30 08:21 | 45.51372 | -4.64463 | 36019 ft | 463 kts | 46° |
| 2026-04-30 08:22 | 45.55922 | -4.57965 | 36027 ft | 463 kts | 46° |
| 2026-04-30 08:22 | 45.60479 | -4.51440 | 36021 ft | 464 kts | 46° |
| 2026-04-30 08:23 | 45.65038 | -4.44896 | 36018 ft | 465 kts | 46° |
| 2026-04-30 08:23 | 45.69597 | -4.38337 | 36017 ft | 465 kts | 46° |
| 2026-04-30 08:24 | 45.74159 | -4.31756 | 36015 ft | 466 kts | 46° |
| 2026-04-30 08:24 | 45.78721 | -4.25161 | 36014 ft | 466 kts | 46° |
| 2026-04-30 08:25 | 45.83277 | -4.18556 | 36015 ft | 466 kts | 46° |
| 2026-04-30 08:25 | 45.87833 | -4.11936 | 36010 ft | 466 kts | 46° |
| 2026-04-30 08:26 | 45.92380 | -4.05312 | 36009 ft | 466 kts | 46° |
| 2026-04-30 08:26 | 45.96925 | -3.98674 | 36011 ft | 466 kts | 46° |
| 2026-04-30 08:27 | 46.01460 | -3.92036 | 36015 ft | 465 kts | 47° |
| 2026-04-30 08:27 | 46.05987 | -3.85392 | 36003 ft | 464 kts | 47° |
| 2026-04-30 08:28 | 46.10501 | -3.78751 | 36004 ft | 463 kts | 47° |
| 2026-04-30 08:28 | 46.14999 | -3.72117 | 36004 ft | 462 kts | 47° |
| 2026-04-30 08:29 | 46.19456 | -3.65525 | 36002 ft | 462 kts | 47° |
| 2026-04-30 08:29 | 46.23935 | -3.58887 | 35995 ft | 461 kts | 48° |
| 2026-04-30 08:30 | 46.28397 | -3.52257 | 36002 ft | 460 kts | 48° |
| 2026-04-30 08:30 | 46.32851 | -3.45621 | 36001 ft | 459 kts | 48° |
| 2026-04-30 08:31 | 46.37293 | -3.38987 | 36001 ft | 458 kts | 48° |
| 2026-04-30 08:31 | 46.41722 | -3.32356 | 35999 ft | 458 kts | 49° |
| 2026-04-30 08:32 | 46.46145 | -3.25717 | 36000 ft | 457 kts | 49° |
| 2026-04-30 08:32 | 46.50563 | -3.19068 | 35999 ft | 457 kts | 49° |
| 2026-04-30 08:33 | 46.54974 | -3.12416 | 36002 ft | 457 kts | 49° |
| 2026-04-30 08:33 | 46.58810 | -3.05152 | 36014 ft | 452 kts | 62° |
| 2026-04-30 08:34 | 46.61930 | -2.97214 | 36010 ft | 452 kts | 63° |
| 2026-04-30 08:34 | 46.65048 | -2.89247 | 36014 ft | 453 kts | 63° |
| 2026-04-30 08:35 | 46.68208 | -2.81282 | 36004 ft | 454 kts | 63° |
| 2026-04-30 08:35 | 46.71381 | -2.73315 | 36015 ft | 455 kts | 63° |
| 2026-04-30 08:36 | 46.74551 | -2.65338 | 36013 ft | 455 kts | 63° |
| 2026-04-30 08:36 | 46.77719 | -2.57336 | 36014 ft | 456 kts | 63° |
| 2026-04-30 08:37 | 46.80883 | -2.49319 | 36015 ft | 456 kts | 63° |
| 2026-04-30 08:37 | 46.84042 | -2.41294 | 36013 ft | 456 kts | 63° |
| 2026-04-30 08:38 | 46.87215 | -2.33283 | 36014 ft | 455 kts | 62° |
| 2026-04-30 08:38 | 46.90536 | -2.25475 | 36016 ft | 455 kts | 60° |
| 2026-04-30 08:39 | 46.93887 | -2.17630 | 36011 ft | 454 kts | 61° |
| 2026-04-30 08:39 | 46.97218 | -2.09718 | 36012 ft | 453 kts | 61° |
| 2026-04-30 08:40 | 47.00686 | -2.02092 | 36006 ft | 455 kts | 52° |
| 2026-04-30 08:40 | 47.05439 | -1.95933 | 36026 ft | 459 kts | 39° |
| 2026-04-30 08:41 | 47.10607 | -1.90427 | 36017 ft | 459 kts | 39° |
| 2026-04-30 08:41 | 47.15719 | -1.84799 | 36020 ft | 459 kts | 39° |
| 2026-04-30 08:42 | 47.20822 | -1.79151 | 36018 ft | 460 kts | 39° |
| 2026-04-30 08:42 | 47.25948 | -1.73499 | 36025 ft | 460 kts | 39° |
| 2026-04-30 08:43 | 47.31074 | -1.67827 | 36022 ft | 461 kts | 39° |
| 2026-04-30 08:43 | 47.35933 | -1.61721 | 36013 ft | 457 kts | 52° |
| 2026-04-30 08:44 | 47.39850 | -1.54353 | 36026 ft | 456 kts | 55° |
| 2026-04-30 08:44 | 47.43703 | -1.46887 | 36026 ft | 458 kts | 55° |
| 2026-04-30 08:45 | 47.47594 | -1.39439 | 36035 ft | 458 kts | 54° |
| 2026-04-30 08:45 | 47.51506 | -1.31999 | 36042 ft | 458 kts | 54° |
| 2026-04-30 08:46 | 47.55398 | -1.24594 | 36011 ft | 447 kts | 54° |
| 2026-04-30 08:46 | 47.57274 | -1.21020 | 36025 ft | 433 kts | 54° |
| 2026-04-30 08:46 | 47.59108 | -1.17515 | 36030 ft | 429 kts | 55° |
| 2026-04-30 08:47 | 47.62740 | -1.10552 | 36049 ft | 426 kts | 55° |